Observation data for Jayton on 09/12/2017      Previous  Date       Current Mesonet Observations  Soil Data  Daily Summary Page  Observations in Plain Language
KJTS 120500Z 11006KT 20/10 A3007 RMK A01 T01990095  RH  052%=      5-min Rain = 0
KJTS 120505Z 12005KT 20/09 A3007 RMK A01 T01970094  RH  052%=      5-min Rain = 0
KJTS 120510Z 12005KT 20/10 A3007 RMK A01 T01960095  RH  053%=      5-min Rain = 0
KJTS 120515Z 12005KT 20/10 A3007 RMK A01 T01950095  RH  053%=      5-min Rain = 0
KJTS 120520Z 12005KT 20/10 A3007 RMK A01 T01960095  RH  053%=      5-min Rain = 0
KJTS 120525Z 12005KT 20/09 A3007 RMK A01 T01960094  RH  052%=      5-min Rain = 0
KJTS 120530Z 12005KT 19/09 A3007 RMK A01 T01940094  RH  053%=      5-min Rain = 0
KJTS 120535Z 13005KT 19/09 A3007 RMK A01 T01940094  RH  053%=      5-min Rain = 0
KJTS 120540Z 13005KT 19/09 A3007 RMK A01 T01930094  RH  054%=      5-min Rain = 0
KJTS 120545Z 13005KT 19/09 A3007 RMK A01 T01910094  RH  054%=      5-min Rain = 0
KJTS 120550Z 15003KT 19/09 A3007 RMK A01 T01910094  RH  054%=      5-min Rain = 0
KJTS 120555Z 23002KT 19/09 A3007 RMK A01 T01900094  RH  054%=      5-min Rain = 0
KJTS 120600Z 24002KT 19/09 A3007 RMK A01 T01880094  RH  055%=      5-min Rain = 0
KJTS 120605Z 21001KT 19/10 A3007 RMK A01 T01870095  RH  056%=      5-min Rain = 0
KJTS 120610Z 19000KT 19/10 A3007 RMK A01 T01870095  RH  056%=      5-min Rain = 0
KJTS 120615Z 00000KT 19/10 A3006 RMK A01 T01870095  RH  056%=      5-min Rain = 0
KJTS 120620Z 00000KT 19/09 A3006 RMK A01 T01870094  RH  056%=      5-min Rain = 0
KJTS 120625Z 00000KT 19/09 A3006 RMK A01 T01860094  RH  056%=      5-min Rain = 0
KJTS 120630Z 00000KT 19/09 A3006 RMK A01 T01850094  RH  056%=      5-min Rain = 0
KJTS 120635Z 00000KT 18/10 A3006 RMK A01 T01840095  RH  057%=      5-min Rain = 0
KJTS 120640Z 20000KT 19/10 A3006 RMK A01 T01870095  RH  056%=      5-min Rain = 0
KJTS 120645Z 20000KT 19/10 A3006 RMK A01 T01900096  RH  055%=      5-min Rain = 0
KJTS 120650Z 00000KT 19/10 A3006 RMK A01 T01900096  RH  055%=      5-min Rain = 0
KJTS 120655Z 00000KT 19/10 A3006 RMK A01 T01920095  RH  054%=      5-min Rain = 0
KJTS 120700Z 00000KT 19/10 A3005 RMK A01 T01940095  RH  054%=      5-min Rain = 0
KJTS 120705Z 13000KT 19/10 A3005 RMK A01 T01940095  RH  054%=      5-min Rain = 0
KJTS 120710Z 13001KT 19/10 A3005 RMK A01 T01930095  RH  054%=      5-min Rain = 0
KJTS 120715Z 00000KT 19/09 A3005 RMK A01 T01870093  RH  055%=      5-min Rain = 0
KJTS 120720Z 00000KT 18/10 A3005 RMK A01 T01800096  RH  059%=      5-min Rain = 0
KJTS 120725Z 00000KT 18/10 A3005 RMK A01 T01780095  RH  059%=      5-min Rain = 0
KJTS 120730Z 00000KT 18/10 A3005 RMK A01 T01770096  RH  060%=      5-min Rain = 0
KJTS 120735Z 00000KT 18/10 A3005 RMK A01 T01800097  RH  059%=      5-min Rain = 0
KJTS 120740Z 00000KT 18/10 A3005 RMK A01 T01830096  RH  058%=      5-min Rain = 0
KJTS 120745Z 00000KT 19/10 A3005 RMK A01 T01880096  RH  056%=      5-min Rain = 0
KJTS 120750Z 00000KT 19/10 A3005 RMK A01 T01890095  RH  056%=      5-min Rain = 0
KJTS 120755Z 00000KT 19/10 A3004 RMK A01 T01870096  RH  056%=      5-min Rain = 0
KJTS 120800Z 00000KT 19/10 A3004 RMK A01 T01850096  RH  057%=      5-min Rain = 0
KJTS 120805Z 00000KT 18/10 A3004 RMK A01 T01820096  RH  058%=      5-min Rain = 0
KJTS 120810Z 00000KT 18/10 A3004 RMK A01 T01790097  RH  060%=      5-min Rain = 0
KJTS 120815Z 00000KT 18/10 A3004 RMK A01 T01760097  RH  061%=      5-min Rain = 0
KJTS 120820Z 30001KT 17/10 A3004 RMK A01 T01740096  RH  061%=      5-min Rain = 0
KJTS 120825Z 29002KT 17/10 A3004 RMK A01 T01700095  RH  062%=      5-min Rain = 0
KJTS 120830Z 28003KT 16/09 A3004 RMK A01 T01640093  RH  064%=      5-min Rain = 0
KJTS 120835Z 29003KT 16/09 A3004 RMK A01 T01620093  RH  064%=      5-min Rain = 0
KJTS 120840Z 30002KT 16/09 A3004 RMK A01 T01620093  RH  065%=      5-min Rain = 0
KJTS 120845Z 30002KT 16/09 A3004 RMK A01 T01610093  RH  065%=      5-min Rain = 0
KJTS 120850Z 31002KT 16/09 A3003 RMK A01 T01610093  RH  065%=      5-min Rain = 0
KJTS 120855Z 31003KT 16/09 A3003 RMK A01 T01610092  RH  065%=      5-min Rain = 0
KJTS 120900Z 31003KT 16/09 A3003 RMK A01 T01580092  RH  066%=      5-min Rain = 0
KJTS 120905Z 31003KT 16/09 A3004 RMK A01 T01590093  RH  066%=      5-min Rain = 0
KJTS 120910Z 30003KT 16/09 A3004 RMK A01 T01590093  RH  066%=      5-min Rain = 0
KJTS 120915Z 30003KT 16/09 A3004 RMK A01 T01590093  RH  066%=      5-min Rain = 0
KJTS 120920Z 30003KT 16/09 A3004 RMK A01 T01580094  RH  067%=      5-min Rain = 0
KJTS 120925Z 31004KT 16/09 A3003 RMK A01 T01560093  RH  067%=      5-min Rain = 0
KJTS 120930Z 32004KT 16/09 A3003 RMK A01 T01570094  RH  067%=      5-min Rain = 0
KJTS 120935Z 33003KT 16/10 A3003 RMK A01 T01590095  RH  067%=      5-min Rain = 0
KJTS 120940Z 33002KT 16/10 A3003 RMK A01 T01620096  RH  066%=      5-min Rain = 0
KJTS 120945Z 33003KT 16/10 A3003 RMK A01 T01640097  RH  065%=      5-min Rain = 0
KJTS 120950Z 34003KT 17/10 A3003 RMK A01 T01660097  RH  065%=      5-min Rain = 0
KJTS 120955Z 34003KT 17/10 A3003 RMK A01 T01680097  RH  064%=      5-min Rain = 0
KJTS 121000Z 34002KT 17/10 A3003 RMK A01 T01680097  RH  064%=      5-min Rain = 0
KJTS 121005Z 34002KT 17/10 A3003 RMK A01 T01670097  RH  065%=      5-min Rain = 0
KJTS 121010Z 34002KT 16/10 A3003 RMK A01 T01640097  RH  066%=      5-min Rain = 0
KJTS 121015Z 34003KT 16/10 A3003 RMK A01 T01630098  RH  066%=      5-min Rain = 0
KJTS 121020Z 34003KT 16/10 A3003 RMK A01 T01620098  RH  067%=      5-min Rain = 0
KJTS 121025Z 34003KT 16/10 A3003 RMK A01 T01620097  RH  067%=      5-min Rain = 0
KJTS 121030Z 33003KT 16/10 A3003 RMK A01 T01570095  RH  067%=      5-min Rain = 0
KJTS 121035Z 33003KT 16/10 A3003 RMK A01 T01550096  RH  069%=      5-min Rain = 0
KJTS 121040Z 32004KT 15/10 A3003 RMK A01 T01540096  RH  069%=      5-min Rain = 0
KJTS 121045Z 33003KT 16/10 A3003 RMK A01 T01550096  RH  069%=      5-min Rain = 0
KJTS 121050Z 34003KT 15/10 A3003 RMK A01 T01520095  RH  070%=      5-min Rain = 0
KJTS 121055Z 35003KT 16/10 A3003 RMK A01 T01550095  RH  068%=      5-min Rain = 0
KJTS 121100Z 35003KT 16/10 A3003 RMK A01 T01550095  RH  068%=      5-min Rain = 0
KJTS 121105Z 00003KT 16/10 A3003 RMK A01 T01560095  RH  068%=      5-min Rain = 0
KJTS 121110Z 02003KT 16/10 A3003 RMK A01 T01560096  RH  068%=      5-min Rain = 0
KJTS 121115Z 01003KT 16/10 A3003 RMK A01 T01560096  RH  069%=      5-min Rain = 0
KJTS 121120Z 02004KT 16/10 A3003 RMK A01 T01560097  RH  069%=      5-min Rain = 0
KJTS 121125Z 02003KT 16/10 A3003 RMK A01 T01570096  RH  068%=      5-min Rain = 0
KJTS 121130Z 03003KT 16/10 A3003 RMK A01 T01570095  RH  068%=      5-min Rain = 0
KJTS 121135Z 02003KT 16/09 A3003 RMK A01 T01560094  RH  068%=      5-min Rain = 0
KJTS 121140Z 02002KT 16/10 A3004 RMK A01 T01550095  RH  068%=      5-min Rain = 0
KJTS 121145Z 27002KT 16/10 A3004 RMK A01 T01550095  RH  068%=      5-min Rain = 0
KJTS 121150Z 26004KT 15/09 A3004 RMK A01 T01470093  RH  071%=      5-min Rain = 0
KJTS 121155Z 26003KT 14/09 A3004 RMK A01 T01430092  RH  073%=      5-min Rain = 0
KJTS 121200Z 27003KT 14/09 A3004 RMK A01 T01400091  RH  073%=      5-min Rain = 0
KJTS 121205Z 28003KT 14/09 A3004 RMK A01 T01390090  RH  073%=      5-min Rain = 0
KJTS 121210Z 29003KT 14/09 A3004 RMK A01 T01380088  RH  073%=      5-min Rain = 0
KJTS 121215Z 29004KT 14/09 A3004 RMK A01 T01360087  RH  074%=      5-min Rain = 0
KJTS 121220Z 30004KT 14/09 A3004 RMK A01 T01350087  RH  074%=      5-min Rain = 0
KJTS 121225Z 30004KT 14/09 A3004 RMK A01 T01350087  RH  074%=      5-min Rain = 0
KJTS 121230Z 30004KT 14/09 A3004 RMK A01 T01350087  RH  074%=      5-min Rain = 0
KJTS 121235Z 31004KT 14/09 A3004 RMK A01 T01350088  RH  074%=      5-min Rain = 0
KJTS 121240Z 31004KT 14/09 A3004 RMK A01 T01380089  RH  074%=      5-min Rain = 0
KJTS 121245Z 31002KT 14/09 A3004 RMK A01 T01400090  RH  073%=      5-min Rain = 0
KJTS 121250Z 30003KT 14/09 A3004 RMK A01 T01420090  RH  072%=      5-min Rain = 0
KJTS 121255Z 29003KT 14/09 A3004 RMK A01 T01440090  RH  071%=      5-min Rain = 0
KJTS 121300Z 30003KT 15/09 A3004 RMK A01 T01470091  RH  070%=      5-min Rain = 0
KJTS 121305Z 30002KT 15/09 A3004 RMK A01 T01490091  RH  070%=      5-min Rain = 0
KJTS 121310Z 30002KT 15/09 A3004 RMK A01 T01510092  RH  069%=      5-min Rain = 0
KJTS 121315Z 29002KT 16/09 A3004 RMK A01 T01550093  RH  068%=      5-min Rain = 0
KJTS 121320Z 30001KT 16/09 A3004 RMK A01 T01580093  RH  067%=      5-min Rain = 0
KJTS 121325Z 31001KT 16/09 A3004 RMK A01 T01620094  RH  065%=      5-min Rain = 0
KJTS 121330Z 29001KT 17/10 A3004 RMK A01 T01650095  RH  064%=      5-min Rain = 0
KJTS 121335Z 28002KT 17/10 A3004 RMK A01 T01700097  RH  063%=      5-min Rain = 0
KJTS 121340Z 28002KT 17/10 A3004 RMK A01 T01740097  RH  061%=      5-min Rain = 0
KJTS 121345Z 28001KT 18/10 A3004 RMK A01 T01780098  RH  060%=      5-min Rain = 0
KJTS 121350Z 13000KT 18/10 A3004 RMK A01 T01820099  RH  059%=      5-min Rain = 0
KJTS 121355Z 13000KT 19/10 A3004 RMK A01 T01890099  RH  057%=      5-min Rain = 0
KJTS 121400Z 11000KT 20/10 A3004 RMK A01 T01960100  RH  054%=      5-min Rain = 0
KJTS 121405Z 15000KT 20/10 A3004 RMK A01 T02020099  RH  052%=      5-min Rain = 0
KJTS 121410Z 22000KT 21/10 A3004 RMK A01 T02080098  RH  050%=      5-min Rain = 0
KJTS 121415Z 22001KT 21/10 A3004 RMK A01 T02100097  RH  049%=      5-min Rain = 0
KJTS 121420Z 21000KT 21/10 A3004 RMK A01 T02140097  RH  048%=      5-min Rain = 0
KJTS 121425Z 23001KT 22/10 A3004 RMK A01 T02200097  RH  046%=      5-min Rain = 0
KJTS 121430Z 26001KT 22/10 A3004 RMK A01 T02220099  RH  046%=      5-min Rain = 0
KJTS 121435Z 33002KT 23/10 A3004 RMK A01 T02250098  RH  045%=      5-min Rain = 0
KJTS 121440Z 32002KT 23/10 A3004 RMK A01 T02270096  RH  044%=      5-min Rain = 0
KJTS 121445Z 32001KT 23/09 A3004 RMK A01 T02300093  RH  042%=      5-min Rain = 0
KJTS 121450Z 30001KT 23/09 A3004 RMK A01 T02330090  RH  041%=      5-min Rain = 0
KJTS 121455Z 29001KT 24/09 A3004 RMK A01 T02350091  RH  040%=      5-min Rain = 0
KJTS 121500Z 30002KT 24/09 A3004 RMK A01 T02370091  RH  040%=      5-min Rain = 0
KJTS 121505Z 25001KT 24/09 A3004 RMK A01 T02400090  RH  039%=      5-min Rain = 0
KJTS 121510Z 21001KT 25/09 A3004 RMK A01 T02450087  RH  037%=      5-min Rain = 0
KJTS 121515Z 22002KT 25/09 A3004 RMK A01 T02480086  RH  036%=      5-min Rain = 0
KJTS 121520Z 22001KT 25/09 A3004 RMK A01 T02490086  RH  036%=      5-min Rain = 0
KJTS 121525Z 28002KT 25/08 A3004 RMK A01 T02540083  RH  034%=      5-min Rain = 0
KJTS 121530Z 28002KT 26/08 A3004 RMK A01 T02550081  RH  034%=      5-min Rain = 0
KJTS 121535Z 26001KT 26/08 A3004 RMK A01 T02570081  RH  033%=      5-min Rain = 0
KJTS 121540Z 26003KT 26/08 A3004 RMK A01 T02590080  RH  033%=      5-min Rain = 0
KJTS 121545Z 26002KT 26/08 A3004 RMK A01 T02620082  RH  032%=      5-min Rain = 0
KJTS 121550Z 28004KT 26/08 A3004 RMK A01 T02640081  RH  032%=      5-min Rain = 0
KJTS 121555Z 25003KT 27/08 A3003 RMK A01 T02650082  RH  032%=      5-min Rain = 0
KJTS 121600Z 24004KT 27/08 A3003 RMK A01 T02670082  RH  032%=      5-min Rain = 0
KJTS 121605Z 27002KT 27/08 A3003 RMK A01 T02690083  RH  031%=      5-min Rain = 0
KJTS 121610Z 21002KT 27/08 A3003 RMK A01 T02730084  RH  031%=      5-min Rain = 0
KJTS 121615Z 23002KT 28/08 A3003 RMK A01 T02750084  RH  030%=      5-min Rain = 0
KJTS 121620Z 01001KT 28/09 A3003 RMK A01 T02790085  RH  030%=      5-min Rain = 0
KJTS 121625Z 33003KT 28/08 A3003 RMK A01 T02810084  RH  029%=      5-min Rain = 0
KJTS 121630Z 33002KT 28/09 A3003 RMK A01 T02800085  RH  030%=      5-min Rain = 0
KJTS 121635Z 35001KT 28/09 A3002 RMK A01 T02820085  RH  029%=      5-min Rain = 0
KJTS 121640Z 12001KT 29/09 A3002 RMK A01 T02850086  RH  029%=      5-min Rain = 0
KJTS 121645Z 06001KT 29/09 A3002 RMK A01 T02910086  RH  028%=      5-min Rain = 0
KJTS 121650Z 09001KT 30/09 A3002 RMK A01 T02950086  RH  028%=      5-min Rain = 0
KJTS 121655Z 29002KT 30/09 A3001 RMK A01 T02950086  RH  027%=      5-min Rain = 0
KJTS 121700Z 29003KT 29/09 A3001 RMK A01 T02930085  RH  028%=      5-min Rain = 0
KJTS 121705Z 30002KT 29/09 A3001 RMK A01 T02930085  RH  028%=      5-min Rain = 0
KJTS 121710Z 30002KT 29/09 A3001 RMK A01 T02900085  RH  028%=      5-min Rain = 0
KJTS 121715Z 26002KT 29/09 A3001 RMK A01 T02930085  RH  028%=      5-min Rain = 0
KJTS 121720Z 36002KT 29/09 A3001 RMK A01 T02930085  RH  028%=      5-min Rain = 0
KJTS 121725Z 09002KT 30/09 A3001 RMK A01 T02950086  RH  028%=      5-min Rain = 0
KJTS 121730Z 31002KT 30/09 A30 RMK A01 T02980086  RH  027%=      5-min Rain = 0
KJTS 121735Z 32003KT 30/09 A30 RMK A01 T02980086  RH  027%=      5-min Rain = 0
KJTS 121740Z 32003KT 30/09 A30 RMK A01 T03000087  RH  027%=      5-min Rain = 0
KJTS 121745Z 23003KT 30/09 A30 RMK A01 T03000086  RH  027%=      5-min Rain = 0
KJTS 121750Z 18001KT 30/09 A2999 RMK A01 T03020087  RH  027%=      5-min Rain = 0
KJTS 121755Z 19002KT 31/09 A2999 RMK A01 T03050087  RH  026%=      5-min Rain = 0
KJTS 121800Z 35004KT 31/09 A2999 RMK A01 T03060088  RH  026%=      5-min Rain = 0
KJTS 121805Z 32003KT 31/09 A2999 RMK A01 T03070088  RH  026%=      5-min Rain = 0
KJTS 121810Z 32003KT 31/09 A2998 RMK A01 T03070088  RH  026%=      5-min Rain = 0
KJTS 121815Z 25003KT 31/09 A2998 RMK A01 T03060088  RH  026%=      5-min Rain = 0
KJTS 121820Z 26002KT 31/09 A2998 RMK A01 T03080088  RH  026%=      5-min Rain = 0
KJTS 121825Z 21004KT 31/09 A2998 RMK A01 T03120088  RH  025%=      5-min Rain = 0
KJTS 121830Z 21003KT 31/09 A2998 RMK A01 T03140089  RH  025%=      5-min Rain = 0
KJTS 121835Z 02004KT 32/09 A2997 RMK A01 T03170090  RH  025%=      5-min Rain = 0
KJTS 121840Z 06004KT 32/09 A2997 RMK A01 T03170091  RH  025%=      5-min Rain = 0
KJTS 121845Z 01006KT 32/09 A2997 RMK A01 T03150091  RH  025%=      5-min Rain = 0
KJTS 121850Z 01004KT 32/09 A2997 RMK A01 T03150091  RH  025%=      5-min Rain = 0
KJTS 121855Z 02003KT 32/09 A2996 RMK A01 T03170091  RH  025%=      5-min Rain = 0
KJTS 121900Z 27003G8KT 32/09 A2996 RMK A01 T03170092  RH  025%=      5-min Rain = 0
KJTS 121905Z 24004G9KT 32/09 A2996 RMK A01 T03210092  RH  025%=      5-min Rain = 0
KJTS 121910Z 28006KT 32/09 A2995 RMK A01 T03240092  RH  024%=      5-min Rain = 0
KJTS 121915Z 27006KT 32/09 A2995 RMK A01 T03240092  RH  024%=      5-min Rain = 0
KJTS 121920Z 30004KT 33/09 A2995 RMK A01 T03260092  RH  024%=      5-min Rain = 0
KJTS 121925Z 00005G11KT 33/09 A2994 RMK A01 T03250092  RH  024%=      5-min Rain = 0
KJTS 121930Z 31006KT 33/09 A2994 RMK A01 T03250091  RH  024%=      5-min Rain = 0
KJTS 121935Z 34006KT 33/09 A2994 RMK A01 T03250092  RH  024%=      5-min Rain = 0
KJTS 121940Z 31003KT 33/09 A2994 RMK A01 T03250091  RH  024%=      5-min Rain = 0
KJTS 121945Z 33001KT 32/09 A2993 RMK A01 T03230091  RH  024%=      5-min Rain = 0
KJTS 121950Z 10003KT 32/09 A2993 RMK A01 T03220092  RH  025%=      5-min Rain = 0
KJTS 121955Z 11002KT 33/09 A2993 RMK A01 T03320091  RH  023%=      5-min Rain = 0
KJTS 122000Z 27003KT 34/09 A2993 RMK A01 T03370091  RH  022%=      5-min Rain = 0
KJTS 122005Z 27003KT 33/09 A2992 RMK A01 T03340090  RH  023%=      5-min Rain = 0
KJTS 122010Z 22003KT 33/09 A2992 RMK A01 T03300090  RH  023%=      5-min Rain = 0
KJTS 122015Z 17002KT 33/09 A2992 RMK A01 T03280091  RH  024%=      5-min Rain = 0
KJTS 122020Z 07002G8KT 33/09 A2992 RMK A01 T03320091  RH  023%=      5-min Rain = 0
KJTS 122025Z 02004G9KT 34/09 A2991 RMK A01 T03350090  RH  023%=      5-min Rain = 0
KJTS 122030Z 33005G10KT 34/09 A2991 RMK A01 T03370089  RH  022%=      5-min Rain = 0
KJTS 122035Z 35005G11KT 33/09 A2991 RMK A01 T03340087  RH  022%=      5-min Rain = 0
KJTS 122040Z 20003KT 33/09 A299 RMK A01 T03310088  RH  023%=      5-min Rain = 0
KJTS 122045Z 29005KT 33/09 A299 RMK A01 T03320089  RH  023%=      5-min Rain = 0
KJTS 122050Z 30004KT 33/09 A299 RMK A01 T03330088  RH  022%=      5-min Rain = 0
KJTS 122055Z 32006G13KT 34/09 A2989 RMK A01 T03350088  RH  022%=      5-min Rain = 0
KJTS 122100Z 01006G12KT 34/09 A2989 RMK A01 T03370087  RH  022%=      5-min Rain = 0
KJTS 122105Z 31005KT 34/09 A2989 RMK A01 T03360087  RH  022%=      5-min Rain = 0
KJTS 122110Z 29005KT 34/09 A2989 RMK A01 T03360087  RH  022%=      5-min Rain = 0
KJTS 122115Z 31003KT 34/09 A2988 RMK A01 T03360087  RH  022%=      5-min Rain = 0
KJTS 122120Z 00001KT 34/09 A2988 RMK A01 T03370088  RH  022%=      5-min Rain = 0
KJTS 122125Z 31004KT 34/09 A2988 RMK A01 T03420088  RH  021%=      5-min Rain = 0
KJTS 122130Z 02004KT 35/09 A2988 RMK A01 T03470088  RH  021%=      5-min Rain = 0
KJTS 122135Z 06004KT 34/09 A2988 RMK A01 T03410088  RH  022%=      5-min Rain = 0
KJTS 122140Z 09002G9KT 34/09 A2988 RMK A01 T03420088  RH  021%=      5-min Rain = 0
KJTS 122145Z 10006G12KT 34/09 A2987 RMK A01 T03430088  RH  021%=      5-min Rain = 0
KJTS 122150Z 10005KT 34/09 A2987 RMK A01 T03430088  RH  021%=      5-min Rain = 0
KJTS 122155Z 09004KT 34/09 A2987 RMK A01 T03390088  RH  022%=      5-min Rain = 0
KJTS 122200Z 08007KT 34/09 A2987 RMK A01 T03400086  RH  021%=      5-min Rain = 0
KJTS 122205Z 06005KT 34/09 A2987 RMK A01 T03390087  RH  022%=      5-min Rain = 0
KJTS 122210Z 01004KT 34/09 A2987 RMK A01 T03400087  RH  021%=      5-min Rain = 0
KJTS 122215Z 04003KT 34/09 A2987 RMK A01 T03380086  RH  022%=      5-min Rain = 0
KJTS 122220Z 06004KT 34/09 A2987 RMK A01 T03370086  RH  022%=      5-min Rain = 0
KJTS 122225Z 04004KT 34/09 A2987 RMK A01 T03350086  RH  022%=      5-min Rain = 0
KJTS 122230Z 11001G7KT 34/09 A2987 RMK A01 T03360085  RH  022%=      5-min Rain = 0
KJTS 122235Z 07006KT 34/09 A2986 RMK A01 T03360087  RH  022%=      5-min Rain = 0
KJTS 122240Z 06006KT 34/09 A2986 RMK A01 T03370088  RH  022%=      5-min Rain = 0
KJTS 122245Z 07006KT 34/09 A2986 RMK A01 T03370087  RH  022%=      5-min Rain = 0
KJTS 122250Z 10004KT 34/09 A2986 RMK A01 T03380086  RH  022%=      5-min Rain = 0
KJTS 122255Z 09003KT 34/09 A2986 RMK A01 T03380087  RH  022%=      5-min Rain = 0
KJTS 122300Z 06005KT 34/09 A2986 RMK A01 T03380088  RH  022%=      5-min Rain = 0
KJTS 122305Z 06006KT 34/09 A2986 RMK A01 T03350087  RH  022%=      5-min Rain = 0
KJTS 122310Z 04003KT 33/09 A2986 RMK A01 T03340087  RH  022%=      5-min Rain = 0
KJTS 122315Z 06008KT 33/09 A2986 RMK A01 T03340089  RH  022%=      5-min Rain = 0
KJTS 122320Z 06008KT 33/09 A2986 RMK A01 T03310089  RH  023%=      5-min Rain = 0
KJTS 122325Z 06007KT 33/09 A2986 RMK A01 T03310090  RH  023%=      5-min Rain = 0
KJTS 122330Z 07007KT 33/09 A2986 RMK A01 T03300089  RH  023%=      5-min Rain = 0
KJTS 122335Z 08008KT 33/09 A2986 RMK A01 T03300089  RH  023%=      5-min Rain = 0
KJTS 122340Z 07007KT 33/09 A2986 RMK A01 T03290089  RH  023%=      5-min Rain = 0
KJTS 122345Z 07006KT 33/09 A2985 RMK A01 T03280090  RH  023%=      5-min Rain = 0
KJTS 122350Z 08007KT 33/09 A2985 RMK A01 T03290090  RH  023%=      5-min Rain = 0
KJTS 122355Z 08007KT 33/09 A2985 RMK A01 T03270089  RH  023%=      5-min Rain = 0
KJTS 130000Z 07007KT 33/09 A2985 RMK A01 T03260089  RH  024%=      5-min Rain = 0
KJTS 130005Z 07007KT 32/09 A2985 RMK A01 T03240089  RH  024%=      5-min Rain = 0
KJTS 130010Z 08006KT 32/09 A2985 RMK A01 T03220089  RH  024%=      5-min Rain = 0
KJTS 130015Z 08006KT 32/09 A2985 RMK A01 T03210089  RH  024%=      5-min Rain = 0
KJTS 130020Z 08006KT 32/09 A2984 RMK A01 T03190089  RH  024%=      5-min Rain = 0
KJTS 130025Z 09006KT 32/09 A2984 RMK A01 T03180089  RH  025%=      5-min Rain = 0
KJTS 130030Z 08006KT 32/09 A2984 RMK A01 T03150090  RH  025%=      5-min Rain = 0
KJTS 130035Z 08006KT 31/09 A2984 RMK A01 T03120090  RH  026%=      5-min Rain = 0
KJTS 130040Z 08007KT 31/09 A2984 RMK A01 T03100090  RH  026%=      5-min Rain = 0
KJTS 130045Z 09009KT 31/09 A2984 RMK A01 T03070089  RH  026%=      5-min Rain = 0
KJTS 130050Z 10008KT 30/09 A2985 RMK A01 T03020089  RH  027%=      5-min Rain = 0
KJTS 130055Z 10008KT 30/09 A2985 RMK A01 T02980088  RH  027%=      5-min Rain = 0
KJTS 130100Z 10008KT 30/09 A2985 RMK A01 T02950088  RH  028%=      5-min Rain = 0
KJTS 130105Z 10007KT 29/09 A2985 RMK A01 T02910088  RH  029%=      5-min Rain = 0
KJTS 130110Z 10007KT 29/09 A2985 RMK A01 T02880088  RH  029%=      5-min Rain = 0
KJTS 130115Z 10010KT 29/09 A2985 RMK A01 T02870087  RH  029%=      5-min Rain = 0
KJTS 130120Z 09010KT 29/09 A2985 RMK A01 T02890087  RH  029%=      5-min Rain = 0
KJTS 130125Z 10010KT 29/09 A2985 RMK A01 T02860087  RH  029%=      5-min Rain = 0
KJTS 130130Z 10009KT 28/09 A2985 RMK A01 T02840086  RH  029%=      5-min Rain = 0
KJTS 130135Z 10009KT 28/09 A2986 RMK A01 T02810087  RH  030%=      5-min Rain = 0
KJTS 130140Z 10009KT 28/09 A2986 RMK A01 T02780087  RH  030%=      5-min Rain = 0
KJTS 130145Z 10008KT 28/09 A2986 RMK A01 T02760086  RH  031%=      5-min Rain = 0
KJTS 130150Z 10009KT 28/09 A2986 RMK A01 T02750085  RH  031%=      5-min Rain = 0
KJTS 130155Z 09008KT 27/09 A2986 RMK A01 T02730085  RH  031%=      5-min Rain = 0
KJTS 130200Z 09008KT 27/09 A2987 RMK A01 T02710085  RH  031%=      5-min Rain = 0
KJTS 130205Z 09008KT 27/08 A2987 RMK A01 T02690084  RH  032%=      5-min Rain = 0
KJTS 130210Z 09008KT 27/08 A2987 RMK A01 T02680083  RH  032%=      5-min Rain = 0
KJTS 130215Z 10007KT 27/08 A2987 RMK A01 T02650083  RH  032%=      5-min Rain = 0
KJTS 130220Z 10007KT 26/08 A2987 RMK A01 T02610083  RH  033%=      5-min Rain = 0
KJTS 130225Z 09007KT 26/08 A2987 RMK A01 T02590083  RH  033%=      5-min Rain = 0
KJTS 130230Z 09007KT 26/08 A2987 RMK A01 T02580082  RH  033%=      5-min Rain = 0
KJTS 130235Z 10006KT 26/08 A2987 RMK A01 T02560082  RH  034%=      5-min Rain = 0
KJTS 130240Z 09006KT 25/08 A2987 RMK A01 T02530082  RH  034%=      5-min Rain = 0
KJTS 130245Z 08007KT 25/08 A2988 RMK A01 T02540081  RH  034%=      5-min Rain = 0
KJTS 130250Z 09007KT 26/08 A2988 RMK A01 T02570081  RH  033%=      5-min Rain = 0
KJTS 130255Z 09007KT 26/08 A2988 RMK A01 T02550081  RH  034%=      5-min Rain = 0
KJTS 130300Z 09007KT 25/08 A2988 RMK A01 T02520081  RH  034%=      5-min Rain = 0
KJTS 130305Z 08008KT 25/08 A2988 RMK A01 T02520080  RH  034%=      5-min Rain = 0
KJTS 130310Z 09007KT 25/08 A2988 RMK A01 T02530080  RH  034%=      5-min Rain = 0
KJTS 130315Z 09006KT 25/08 A2989 RMK A01 T02490081  RH  035%=      5-min Rain = 0
KJTS 130320Z 10007KT 25/08 A2989 RMK A01 T02450082  RH  036%=      5-min Rain = 0
KJTS 130325Z 09008KT 25/08 A2989 RMK A01 T02460081  RH  035%=      5-min Rain = 0
KJTS 130330Z 09008KT 25/08 A2989 RMK A01 T02500080  RH  034%=      5-min Rain = 0
KJTS 130335Z 10007KT 25/08 A2989 RMK A01 T02500080  RH  034%=      5-min Rain = 0
KJTS 130340Z 10007KT 25/08 A2989 RMK A01 T02470080  RH  035%=      5-min Rain = 0
KJTS 130345Z 09007KT 24/08 A2989 RMK A01 T02440081  RH  036%=      5-min Rain = 0
KJTS 130350Z 09008KT 24/08 A2989 RMK A01 T02430080  RH  036%=      5-min Rain = 0
KJTS 130355Z 09007KT 24/08 A2989 RMK A01 T02420080  RH  036%=      5-min Rain = 0
KJTS 130400Z 09007KT 24/08 A2989 RMK A01 T02400081  RH  037%=      5-min Rain = 0
KJTS 130405Z 09007KT 24/08 A2989 RMK A01 T02370081  RH  037%=      5-min Rain = 0
KJTS 130410Z 09007KT 24/08 A2989 RMK A01 T02360080  RH  037%=      5-min Rain = 0
KJTS 130415Z 09007KT 24/08 A2989 RMK A01 T02370080  RH  037%=      5-min Rain = 0
KJTS 130420Z 09007KT 24/08 A2989 RMK A01 T02370079  RH  037%=      5-min Rain = 0
KJTS 130425Z 11005KT 24/08 A2989 RMK A01 T02350080  RH  037%=      5-min Rain = 0
KJTS 130430Z 11006KT 23/08 A2989 RMK A01 T02310080  RH  038%=      5-min Rain = 0
KJTS 130435Z 10006KT 23/08 A2989 RMK A01 T02260081  RH  040%=      5-min Rain = 0
KJTS 130440Z 11005KT 23/08 A2989 RMK A01 T02260080  RH  040%=      5-min Rain = 0
KJTS 130445Z 14004KT 23/08 A299 RMK A01 T02260080  RH  040%=      5-min Rain = 0
KJTS 130450Z 10005KT 23/08 A2989 RMK A01 T02270080  RH  039%=      5-min Rain = 0
KJTS 130455Z 10005KT 22/08 A2989 RMK A01 T02230081  RH  041%=      5-min Rain = 0

Page generated in 0.009 seconds.